createdAt,value
2023-02-18T00:01:06.064Z,2.53
2023-02-18T00:04:18.098Z,2.85
2023-02-18T00:07:29.996Z,2.68
2023-02-18T00:10:44.229Z,2.98
2023-02-18T00:14:00.341Z,3.08
2023-02-18T00:17:12.235Z,2.78
2023-02-18T00:20:24.479Z,2.70
2023-02-18T00:23:36.800Z,2.75
2023-02-18T00:26:49.818Z,2.80
2023-02-18T00:30:05.885Z,3.05
2023-02-18T00:33:18.491Z,2.87
2023-02-18T00:36:31.709Z,3.30
2023-02-18T00:39:44.344Z,2.70
2023-02-18T00:42:56.731Z,2.85
2023-02-18T00:46:09.430Z,2.73
2023-02-18T00:49:22.563Z,2.40
2023-02-18T00:52:34.719Z,2.10
2023-02-18T00:55:49.268Z,2.25
2023-02-18T00:59:01.573Z,2.23
2023-02-18T01:02:13.648Z,2.58
2023-02-18T01:05:26.149Z,2.23
2023-02-18T01:08:40.527Z,1.90
2023-02-18T01:11:52.607Z,2.00
2023-02-18T01:15:04.749Z,1.93
2023-02-18T01:18:17.736Z,2.30
2023-02-18T01:21:29.811Z,2.00
2023-02-18T01:24:46.320Z,2.03
2023-02-18T01:27:58.789Z,2.30
2023-02-18T01:31:16.195Z,2.28
2023-02-18T01:34:28.539Z,2.15
2023-02-18T01:37:40.812Z,2.65
2023-02-18T01:40:58.150Z,2.20
2023-02-18T01:44:25.600Z,2.38
2023-02-18T01:47:37.858Z,2.58
2023-02-18T01:50:55.772Z,2.63
2023-02-18T01:54:13.064Z,2.40
2023-02-18T01:57:30.193Z,2.63
2023-02-18T02:00:42.292Z,2.45
2023-02-18T02:03:54.436Z,2.30
2023-02-18T02:07:06.674Z,2.20
2023-02-18T02:10:21.140Z,1.85
2023-02-18T02:13:41.930Z,1.73
2023-02-18T02:17:01.401Z,1.48
2023-02-18T02:20:52.202Z,1.38
2023-02-18T02:25:06.867Z,1.30
2023-02-18T02:29:07.155Z,1.53
2023-02-18T02:32:40.107Z,1.30
2023-02-18T02:35:56.304Z,1.60
2023-02-18T02:39:15.848Z,1.40
2023-02-18T02:42:37.750Z,1.70
2023-02-18T02:45:59.523Z,1.33
2023-02-18T02:49:20.215Z,1.53
2023-02-18T02:52:36.915Z,1.10
2023-02-18T02:55:49.023Z,1.23
2023-02-18T02:59:09.280Z,1.40
2023-02-18T03:02:34.575Z,1.20
2023-02-18T03:05:57.731Z,1.30
2023-02-18T03:09:17.331Z,1.40
2023-02-18T03:12:37.250Z,1.60
2023-02-18T03:15:55.521Z,1.40
2023-02-18T03:19:14.833Z,1.20
2023-02-18T03:22:31.674Z,1.33
2023-02-18T03:25:46.522Z,1.35
2023-02-18T03:29:02.397Z,1.65
2023-02-18T03:32:18.209Z,1.73
2023-02-18T03:35:42.812Z,1.50
2023-02-18T03:39:00.675Z,1.68
2023-02-18T03:42:13.516Z,2.38
2023-02-18T03:45:25.784Z,1.98
2023-02-18T03:48:37.975Z,2.15
2023-02-18T03:51:50.960Z,1.90
2023-02-18T03:55:04.100Z,1.83
2023-02-18T03:58:16.286Z,1.50
2023-02-18T04:01:29.068Z,1.58
2023-02-18T04:04:41.183Z,1.28
2023-02-18T04:07:53.374Z,1.60
2023-02-18T04:14:05.493Z,1.63
2023-02-18T04:17:18.056Z,1.70
2023-02-18T04:34:27.727Z,2.13
2023-02-18T04:37:39.781Z,1.70
2023-02-18T04:40:51.847Z,1.58
2023-02-18T04:44:04.050Z,1.93
2023-02-18T04:47:16.434Z,2.08
2023-02-18T04:50:29.296Z,1.90
2023-02-18T04:53:41.327Z,1.88
2023-02-18T04:56:53.398Z,1.40
2023-02-18T05:00:06.823Z,1.03
2023-02-18T05:03:19.016Z,1.00
2023-02-18T05:06:30.967Z,1.10
2023-02-18T05:09:43.022Z,1.20
2023-02-18T05:12:55.152Z,1.00
2023-02-18T05:16:08.177Z,1.30
2023-02-18T05:19:25.279Z,1.33
2023-02-18T05:22:37.376Z,1.33
2023-02-18T05:25:49.293Z,1.13
2023-02-18T05:29:01.293Z,1.10
2023-02-18T05:32:13.894Z,0.98
2023-02-18T05:35:26.056Z,1.03
2023-02-18T05:38:38.014Z,0.73
2023-02-18T05:41:49.890Z,0.80
2023-02-18T05:45:01.844Z,1.20
2023-02-18T05:48:14.091Z,1.10
2023-02-18T05:51:26.184Z,1.35
2023-02-18T05:54:39.242Z,1.20
2023-02-18T05:57:51.397Z,0.90
2023-02-18T06:01:03.341Z,1.40
2023-02-18T06:04:15.430Z,1.18
2023-02-18T06:07:27.451Z,0.90
2023-02-18T06:10:39.669Z,0.90
2023-02-18T06:13:51.835Z,1.30
2023-02-18T06:17:03.810Z,1.00
2023-02-18T06:20:18.527Z,1.00
2023-02-18T06:23:30.471Z,0.90
2023-02-18T06:26:42.595Z,1.00
2023-02-18T06:29:54.923Z,1.00
2023-02-18T06:33:08.005Z,0.98
2023-02-18T06:36:20.636Z,0.95
2023-02-18T06:39:33.100Z,1.10
2023-02-18T06:42:46.033Z,1.03
2023-02-18T06:46:05.103Z,1.10
2023-02-18T06:49:18.307Z,0.83
2023-02-18T06:52:34.533Z,1.10
2023-02-18T06:55:47.894Z,1.40
2023-02-18T06:59:02.653Z,0.85
2023-02-18T07:02:17.260Z,0.80
2023-02-18T07:05:29.669Z,1.08
2023-02-18T07:08:42.390Z,1.60
2023-02-18T07:11:54.519Z,1.00
2023-02-18T07:15:06.672Z,1.45
2023-02-18T07:18:20.228Z,1.90
2023-02-18T07:21:37.393Z,1.23
2023-02-18T07:24:50.998Z,0.95
2023-02-18T07:28:03.200Z,1.00
2023-02-18T07:31:16.432Z,1.10
2023-02-18T07:34:28.853Z,0.90
2023-02-18T07:37:41.218Z,3.25
2023-02-18T07:40:54.435Z,0.98
2023-02-18T07:44:06.783Z,0.88
2023-02-18T07:47:23.007Z,1.10
2023-02-18T07:50:37.270Z,1.90
2023-02-18T07:53:49.664Z,1.30
2023-02-18T07:57:02.174Z,0.93
2023-02-18T08:00:18.112Z,1.15
2023-02-18T08:03:32.932Z,1.10
2023-02-18T08:06:48.236Z,1.00
2023-02-18T08:10:00.713Z,1.05
2023-02-18T08:13:12.948Z,1.08
2023-02-18T08:16:26.752Z,0.90
2023-02-18T08:19:38.763Z,1.10
2023-02-18T08:22:51.006Z,1.35
2023-02-18T08:26:03.084Z,1.30
2023-02-18T08:29:15.169Z,1.03
2023-02-18T08:32:27.722Z,1.08
2023-02-18T08:35:40.149Z,0.98
2023-02-18T08:38:52.987Z,1.10
2023-02-18T08:42:07.003Z,1.58
2023-02-18T08:45:19.248Z,1.70
2023-02-18T08:48:33.309Z,1.40
2023-02-18T08:51:45.737Z,1.50
2023-02-18T08:54:58.177Z,1.43
2023-02-18T08:58:12.141Z,0.95
2023-02-18T09:04:25.513Z,1.20
2023-02-18T09:07:38.014Z,1.03
2023-02-18T09:10:57.788Z,1.10
2023-02-18T09:17:10.129Z,1.23
2023-02-18T09:23:23.999Z,1.30
2023-02-18T09:26:36.044Z,1.05
2023-02-18T09:29:49.776Z,1.18
2023-02-18T09:33:02.314Z,1.13
2023-02-18T09:36:17.419Z,1.20
2023-02-18T09:39:30.499Z,1.35
2023-02-18T09:42:42.813Z,0.95
2023-02-18T09:45:55.925Z,1.45
2023-02-18T09:49:13.627Z,1.28
2023-02-18T09:52:33.219Z,1.63
2023-02-18T09:55:47.447Z,1.33
2023-02-18T09:59:00.491Z,1.75
2023-02-18T10:02:20.016Z,1.20
2023-02-18T10:05:35.725Z,1.43
2023-02-18T10:08:52.061Z,1.20
2023-02-18T10:12:09.504Z,1.40
2023-02-18T10:15:29.179Z,1.40
2023-02-18T10:21:42.703Z,1.50
2023-02-18T10:25:01.888Z,1.78
2023-02-18T10:37:26.556Z,1.65
2023-02-18T10:40:49.960Z,1.50
2023-02-18T10:44:10.459Z,1.30
2023-02-18T10:47:32.331Z,1.30
2023-02-18T10:50:48.821Z,1.33
2023-02-18T10:54:02.082Z,1.80
2023-02-18T10:57:22.305Z,1.85
2023-02-18T11:00:40.697Z,1.70
2023-02-18T11:03:56.576Z,1.70
2023-02-18T11:07:16.375Z,1.50
2023-02-18T11:10:33.978Z,1.80
2023-02-18T11:13:51.257Z,1.80
2023-02-18T11:17:14.257Z,1.58
2023-02-18T11:20:41.570Z,1.93
2023-02-18T11:26:54.344Z,1.68
2023-02-18T11:30:12.039Z,2.10
2023-02-18T11:33:29.176Z,1.75
2023-02-18T11:36:42.844Z,1.98
2023-02-18T11:39:59.328Z,2.68
2023-02-18T11:43:16.968Z,1.78
2023-02-18T11:46:32.234Z,1.95
2023-02-18T11:49:45.381Z,2.68
2023-02-18T11:52:59.950Z,2.60
2023-02-18T11:56:22.636Z,1.90
2023-02-18T11:59:38.670Z,2.08
2023-02-18T12:02:51.216Z,2.25
2023-02-18T12:06:08.117Z,1.90
2023-02-18T12:09:31.629Z,1.83
2023-02-18T12:12:50.081Z,2.23
2023-02-18T12:16:10.534Z,2.33
2023-02-18T12:19:46.492Z,1.98
2023-02-18T12:23:05.102Z,1.98
2023-02-18T12:26:25.940Z,2.03
2023-02-18T12:29:59.219Z,1.90
2023-02-18T12:33:20.073Z,1.98
2023-02-18T12:36:41.315Z,1.88
2023-02-18T12:40:11.271Z,2.48
2023-02-18T12:43:34.232Z,1.90
2023-02-18T12:47:03.441Z,2.03
2023-02-18T12:50:57.424Z,1.70
2023-02-18T12:54:35.234Z,1.98
2023-02-18T13:01:29.016Z,1.95
2023-02-18T13:04:58.636Z,2.10
2023-02-18T13:08:30.059Z,1.95
2023-02-18T13:11:51.129Z,2.68
2023-02-18T13:15:09.564Z,2.55
2023-02-18T13:18:26.678Z,3.53
2023-02-18T13:21:40.721Z,2.68
2023-02-18T13:24:55.613Z,3.83
2023-02-18T13:28:14.496Z,2.38
2023-02-18T13:31:43.552Z,2.78
2023-02-18T13:35:01.713Z,2.43
2023-02-18T13:38:53.671Z,2.60
2023-02-18T13:42:42.158Z,2.80
2023-02-18T13:46:15.361Z,2.50
2023-02-18T13:49:30.777Z,3.10
2023-02-18T13:52:44.292Z,3.65
2023-02-18T13:56:03.041Z,3.80
2023-02-18T13:59:24.978Z,3.48
2023-02-18T14:02:42.969Z,3.48
2023-02-18T14:09:47.534Z,3.18
2023-02-18T14:13:25.107Z,3.15
2023-02-18T14:16:56.742Z,3.40
2023-02-18T14:20:53.297Z,3.95
2023-02-18T14:24:08.661Z,3.95
2023-02-18T14:27:23.744Z,3.85
2023-02-18T14:30:40.452Z,3.75
2023-02-18T14:33:58.987Z,4.43
2023-02-18T14:37:30.506Z,4.60
2023-02-18T14:46:53.755Z,5.43
2023-02-18T14:50:10.438Z,4.60
2023-02-18T14:53:26.795Z,5.78
2023-02-18T14:56:44.052Z,5.53
2023-02-18T15:03:08.844Z,5.90
2023-02-18T15:06:37.625Z,5.65
2023-02-18T15:09:57.605Z,5.83
2023-02-18T15:13:12.801Z,6.60
2023-02-18T15:16:31.637Z,7.28
2023-02-18T15:22:46.121Z,6.60
2023-02-18T15:26:00.078Z,6.70
2023-02-18T15:42:05.245Z,7.10
2023-02-18T15:45:25.883Z,7.68
2023-02-18T15:48:44.144Z,8.33
2023-02-18T15:52:08.785Z,7.58
2023-02-18T15:58:25.860Z,8.15
2023-02-18T16:01:38.206Z,9.53
2023-02-18T16:05:05.429Z,7.95
2023-02-18T16:08:29.046Z,9.80
2023-02-18T16:11:45.948Z,9.45
2023-02-18T16:15:00.903Z,10.78
2023-02-18T16:18:29.707Z,9.53
2023-02-18T16:33:51.944Z,12.83
2023-02-18T16:37:18.898Z,14.13
2023-02-18T16:40:38.080Z,13.45
2023-02-18T16:49:52.446Z,13.15
2023-02-18T17:08:28.672Z,13.00
2023-02-18T17:11:42.652Z,13.95
2023-02-18T17:14:54.904Z,14.55
2023-02-18T17:18:07.170Z,13.15
2023-02-18T17:21:21.714Z,12.93
2023-02-18T17:24:34.176Z,12.18
2023-02-18T17:27:48.333Z,11.33
2023-02-18T17:31:03.153Z,10.05
2023-02-18T17:34:20.642Z,7.68
2023-02-18T17:37:32.799Z,5.30
2023-02-18T17:40:45.269Z,5.13
2023-02-18T17:43:57.578Z,5.20
2023-02-18T17:47:09.958Z,4.50
2023-02-18T17:50:23.151Z,4.43
2023-02-18T17:53:35.447Z,4.55
2023-02-18T17:56:48.084Z,4.90
2023-02-18T18:00:00.193Z,4.43
2023-02-18T18:03:14.294Z,4.40
2023-02-18T18:06:28.157Z,4.45
2023-02-18T18:09:40.459Z,4.00
2023-02-18T18:12:53.261Z,4.78
2023-02-18T18:16:06.087Z,4.33
2023-02-18T18:19:18.310Z,4.30
2023-02-18T18:25:34.118Z,4.50
2023-02-18T18:59:44.301Z,5.68
2023-02-18T20:11:53.007Z,3.50
2023-02-18T20:15:08.163Z,3.40
2023-02-18T22:05:18.578Z,1.58
2023-02-18T22:11:30.883Z,1.55
2023-02-18T22:14:43.503Z,2.00
2023-02-18T22:17:56.406Z,1.60
2023-02-18T22:21:12.977Z,1.70
2023-02-18T22:24:27.573Z,1.60
2023-02-18T22:27:39.913Z,1.60
2023-02-18T22:30:51.887Z,1.23
2023-02-18T22:34:05.830Z,1.48
2023-02-18T22:37:18.083Z,1.50
2023-02-18T22:40:30.288Z,1.30
2023-02-18T22:43:42.669Z,1.13
2023-02-18T22:46:55.024Z,1.30
2023-02-18T22:50:08.041Z,1.05
2023-02-18T22:53:20.087Z,1.33
2023-02-18T22:56:34.284Z,1.18
2023-02-18T22:59:46.259Z,1.23
2023-02-18T23:02:59.440Z,1.43
2023-02-18T23:06:13.368Z,1.48
2023-02-18T23:09:28.295Z,1.58
2023-02-18T23:12:40.305Z,1.40
2023-02-18T23:16:01.155Z,1.70
2023-02-18T23:19:13.486Z,2.10
2023-02-18T23:22:33.440Z,1.93
2023-02-18T23:25:45.455Z,1.95
2023-02-18T23:28:58.556Z,1.80
2023-02-18T23:32:11.561Z,1.48
2023-02-18T23:35:24.064Z,1.60
2023-02-18T23:38:35.995Z,1.65
2023-02-18T23:41:48.446Z,1.45
2023-02-18T23:45:00.452Z,1.60
2023-02-18T23:48:12.999Z,1.90
2023-02-18T23:51:27.268Z,1.65
2023-02-18T23:54:39.528Z,1.65
2023-02-18T23:57:51.512Z,2.08
